sensor_id;sensor_type;location;lat;lon;timestamp;temperature;humidity
74792;SHT30;63319;46.046;17.802;2023-02-23T00:00:50;22.29;41.01
74792;SHT30;63319;46.046;17.802;2023-02-23T00:04:03;22.29;40.60
74792;SHT30;63319;46.046;17.802;2023-02-23T00:07:06;22.29;40.97
74792;SHT30;63319;46.046;17.802;2023-02-23T00:10:12;22.26;41.20
74792;SHT30;63319;46.046;17.802;2023-02-23T00:13:15;22.26;40.86
74792;SHT30;63319;46.046;17.802;2023-02-23T00:16:20;22.23;40.82
74792;SHT30;63319;46.046;17.802;2023-02-23T00:19:23;22.23;40.92
74792;SHT30;63319;46.046;17.802;2023-02-23T00:22:27;22.23;40.81
74792;SHT30;63319;46.046;17.802;2023-02-23T00:25:30;22.23;40.96
74792;SHT30;63319;46.046;17.802;2023-02-23T00:28:33;22.21;41.00
74792;SHT30;63319;46.046;17.802;2023-02-23T00:31:37;22.22;40.20
74792;SHT30;63319;46.046;17.802;2023-02-23T00:34:40;22.21;40.93
74792;SHT30;63319;46.046;17.802;2023-02-23T00:37:47;22.21;40.81
74792;SHT30;63319;46.046;17.802;2023-02-23T00:40:50;22.18;40.51
74792;SHT30;63319;46.046;17.802;2023-02-23T00:43:59;22.15;40.93
74792;SHT30;63319;46.046;17.802;2023-02-23T00:47:02;22.18;40.37
74792;SHT30;63319;46.046;17.802;2023-02-23T00:50:05;22.13;40.33
74792;SHT30;63319;46.046;17.802;2023-02-23T00:53:09;22.15;40.48
74792;SHT30;63319;46.046;17.802;2023-02-23T00:56:14;22.12;41.05
74792;SHT30;63319;46.046;17.802;2023-02-23T00:59:18;22.16;40.92
74792;SHT30;63319;46.046;17.802;2023-02-23T01:02:21;22.11;41.04
74792;SHT30;63319;46.046;17.802;2023-02-23T01:05:24;22.09;40.88
74792;SHT30;63319;46.046;17.802;2023-02-23T01:08:29;22.12;40.93
74792;SHT30;63319;46.046;17.802;2023-02-23T01:11:39;22.12;41.19
74792;SHT30;63319;46.046;17.802;2023-02-23T01:14:43;22.11;40.47
74792;SHT30;63319;46.046;17.802;2023-02-23T01:17:46;22.09;40.69
74792;SHT30;63319;46.046;17.802;2023-02-23T01:20:50;22.05;40.87
74792;SHT30;63319;46.046;17.802;2023-02-23T01:23:54;22.08;40.73
74792;SHT30;63319;46.046;17.802;2023-02-23T01:26:56;22.05;41.01
74792;SHT30;63319;46.046;17.802;2023-02-23T01:30:00;22.05;41.01
74792;SHT30;63319;46.046;17.802;2023-02-23T01:33:03;22.04;41.10
74792;SHT30;63319;46.046;17.802;2023-02-23T01:36:07;22.01;41.13
74792;SHT30;63319;46.046;17.802;2023-02-23T01:39:13;22.02;40.94
74792;SHT30;63319;46.046;17.802;2023-02-23T01:42:16;22.02;41.17
74792;SHT30;63319;46.046;17.802;2023-02-23T01:48:27;22.04;40.76
74792;SHT30;63319;46.046;17.802;2023-02-23T01:51:38;22.01;40.75
74792;SHT30;63319;46.046;17.802;2023-02-23T01:54:46;21.95;40.84
74792;SHT30;63319;46.046;17.802;2023-02-23T01:57:57;21.98;40.78
74792;SHT30;63319;46.046;17.802;2023-02-23T02:01:01;22.00;41.39
74792;SHT30;63319;46.046;17.802;2023-02-23T02:04:04;21.98;40.55
74792;SHT30;63319;46.046;17.802;2023-02-23T02:07:07;21.98;41.11
74792;SHT30;63319;46.046;17.802;2023-02-23T02:10:10;21.95;40.79
74792;SHT30;63319;46.046;17.802;2023-02-23T02:13:20;21.97;40.51
74792;SHT30;63319;46.046;17.802;2023-02-23T02:20:46;21.95;40.93
74792;SHT30;63319;46.046;17.802;2023-02-23T02:27:39;21.91;40.87
74792;SHT30;63319;46.046;17.802;2023-02-23T02:31:09;21.90;40.84
74792;SHT30;63319;46.046;17.802;2023-02-23T02:37:49;21.91;40.60
74792;SHT30;63319;46.046;17.802;2023-02-23T02:47:16;21.88;40.81
74792;SHT30;63319;46.046;17.802;2023-02-23T02:50:52;21.85;40.71
74792;SHT30;63319;46.046;17.802;2023-02-23T02:57:25;21.85;40.70
74792;SHT30;63319;46.046;17.802;2023-02-23T03:00:36;21.88;40.73
74792;SHT30;63319;46.046;17.802;2023-02-23T03:04:21;21.84;40.79
74792;SHT30;63319;46.046;17.802;2023-02-23T03:11:30;21.84;40.70
74792;SHT30;63319;46.046;17.802;2023-02-23T03:18:59;21.80;40.55
74792;SHT30;63319;46.046;17.802;2023-02-23T03:22:28;21.78;40.44
74792;SHT30;63319;46.046;17.802;2023-02-23T03:26:05;21.77;40.80
74792;SHT30;63319;46.046;17.802;2023-02-23T03:30:03;21.77;41.04
74792;SHT30;63319;46.046;17.802;2023-02-23T03:33:37;21.73;40.83
74792;SHT30;63319;46.046;17.802;2023-02-23T03:40:37;21.73;40.71
74792;SHT30;63319;46.046;17.802;2023-02-23T03:44:02;21.73;40.93
74792;SHT30;63319;46.046;17.802;2023-02-23T03:47:28;21.71;40.38
74792;SHT30;63319;46.046;17.802;2023-02-23T03:50:54;21.73;40.42
74792;SHT30;63319;46.046;17.802;2023-02-23T03:54:21;21.71;40.46
74792;SHT30;63319;46.046;17.802;2023-02-23T03:57:48;21.67;40.59
74792;SHT30;63319;46.046;17.802;2023-02-23T04:01:13;21.68;40.85
74792;SHT30;63319;46.046;17.802;2023-02-23T04:04:37;21.65;40.84
74792;SHT30;63319;46.046;17.802;2023-02-23T04:08:00;21.67;40.24
74792;SHT30;63319;46.046;17.802;2023-02-23T04:11:27;21.67;40.30
74792;SHT30;63319;46.046;17.802;2023-02-23T04:14:55;21.64;40.78
74792;SHT30;63319;46.046;17.802;2023-02-23T04:18:03;21.64;40.71
74792;SHT30;63319;46.046;17.802;2023-02-23T04:21:06;21.63;40.55
74792;SHT30;63319;46.046;17.802;2023-02-23T04:24:10;21.64;40.61
74792;SHT30;63319;46.046;17.802;2023-02-23T04:27:13;21.63;40.45
74792;SHT30;63319;46.046;17.802;2023-02-23T04:30:16;21.60;40.85
74792;SHT30;63319;46.046;17.802;2023-02-23T04:33:20;21.60;40.91
74792;SHT30;63319;46.046;17.802;2023-02-23T04:36:23;21.63;40.98
74792;SHT30;63319;46.046;17.802;2023-02-23T04:39:28;21.61;40.88
74792;SHT30;63319;46.046;17.802;2023-02-23T04:42:31;21.60;40.82
74792;SHT30;63319;46.046;17.802;2023-02-23T04:45:34;21.60;40.67
74792;SHT30;63319;46.046;17.802;2023-02-23T04:48:37;21.58;40.60
74792;SHT30;63319;46.046;17.802;2023-02-23T04:51:40;21.57;40.78
74792;SHT30;63319;46.046;17.802;2023-02-23T04:54:43;21.60;40.79
74792;SHT30;63319;46.046;17.802;2023-02-23T04:57:47;21.57;40.67
74792;SHT30;63319;46.046;17.802;2023-02-23T05:00:50;21.54;40.57
74792;SHT30;63319;46.046;17.802;2023-02-23T05:03:53;21.56;40.59
74792;SHT30;63319;46.046;17.802;2023-02-23T05:06:56;21.57;40.89
74792;SHT30;63319;46.046;17.802;2023-02-23T05:09:59;21.54;40.51
74792;SHT30;63319;46.046;17.802;2023-02-23T05:13:02;21.54;40.84
74792;SHT30;63319;46.046;17.802;2023-02-23T05:16:05;21.53;40.58
74792;SHT30;63319;46.046;17.802;2023-02-23T05:19:08;21.56;40.81
74792;SHT30;63319;46.046;17.802;2023-02-23T05:22:11;21.53;40.74
74792;SHT30;63319;46.046;17.802;2023-02-23T05:25:14;21.50;40.75
74792;SHT30;63319;46.046;17.802;2023-02-23T05:28:17;21.50;40.75
74792;SHT30;63319;46.046;17.802;2023-02-23T05:31:20;21.51;40.77
74792;SHT30;63319;46.046;17.802;2023-02-23T05:34:23;21.49;40.30
74792;SHT30;63319;46.046;17.802;2023-02-23T05:37:26;21.47;40.48
74792;SHT30;63319;46.046;17.802;2023-02-23T05:40:29;21.49;40.51
74792;SHT30;63319;46.046;17.802;2023-02-23T05:43:32;21.50;40.64
74792;SHT30;63319;46.046;17.802;2023-02-23T05:46:35;21.49;40.75
74792;SHT30;63319;46.046;17.802;2023-02-23T05:49:38;21.47;40.71
74792;SHT30;63319;46.046;17.802;2023-02-23T05:52:41;21.47;40.23
74792;SHT30;63319;46.046;17.802;2023-02-23T05:55:44;21.47;40.74
74792;SHT30;63319;46.046;17.802;2023-02-23T05:58:49;21.49;40.61
74792;SHT30;63319;46.046;17.802;2023-02-23T06:01:52;21.50;40.93
74792;SHT30;63319;46.046;17.802;2023-02-23T06:04:55;21.53;40.99
74792;SHT30;63319;46.046;17.802;2023-02-23T06:07:58;21.54;40.41
74792;SHT30;63319;46.046;17.802;2023-02-23T06:11:01;21.54;40.54
74792;SHT30;63319;46.046;17.802;2023-02-23T06:14:05;21.56;40.87
74792;SHT30;63319;46.046;17.802;2023-02-23T06:17:13;21.57;40.21
74792;SHT30;63319;46.046;17.802;2023-02-23T06:20:16;21.60;40.24
74792;SHT30;63319;46.046;17.802;2023-02-23T06:23:19;21.60;40.12
74792;SHT30;63319;46.046;17.802;2023-02-23T06:26:22;21.58;40.46
74792;SHT30;63319;46.046;17.802;2023-02-23T06:29:25;21.60;40.43
74792;SHT30;63319;46.046;17.802;2023-02-23T06:32:28;21.61;40.74
74792;SHT30;63319;46.046;17.802;2023-02-23T06:35:32;21.64;40.09
74792;SHT30;63319;46.046;17.802;2023-02-23T06:38:35;21.64;40.71
74792;SHT30;63319;46.046;17.802;2023-02-23T06:41:39;21.70;40.75
74792;SHT30;63319;46.046;17.802;2023-02-23T06:44:42;21.71;40.69
74792;SHT30;63319;46.046;17.802;2023-02-23T06:47:50;21.78;40.60
74792;SHT30;63319;46.046;17.802;2023-02-23T06:50:58;21.80;40.26
74792;SHT30;63319;46.046;17.802;2023-02-23T06:54:01;21.85;40.65
74792;SHT30;63319;46.046;17.802;2023-02-23T06:57:08;21.91;40.65
74792;SHT30;63319;46.046;17.802;2023-02-23T07:00:12;21.95;40.85
74792;SHT30;63319;46.046;17.802;2023-02-23T07:03:25;22.02;40.85
74792;SHT30;63319;46.046;17.802;2023-02-23T07:06:28;22.05;41.85
74792;SHT30;63319;46.046;17.802;2023-02-23T07:09:31;22.06;41.44
74792;SHT30;63319;46.046;17.802;2023-02-23T07:12:34;22.13;41.29
74792;SHT30;63319;46.046;17.802;2023-02-23T07:15:37;22.22;41.33
74792;SHT30;63319;46.046;17.802;2023-02-23T07:18:40;22.28;41.48
74792;SHT30;63319;46.046;17.802;2023-02-23T07:21:43;22.41;41.15
74792;SHT30;63319;46.046;17.802;2023-02-23T07:24:46;22.49;40.79
74792;SHT30;63319;46.046;17.802;2023-02-23T07:27:49;22.52;41.08
74792;SHT30;63319;46.046;17.802;2023-02-23T07:30:57;22.66;40.87
74792;SHT30;63319;46.046;17.802;2023-02-23T07:34:00;22.67;40.58
74792;SHT30;63319;46.046;17.802;2023-02-23T07:37:03;22.81;39.99
74792;SHT30;63319;46.046;17.802;2023-02-23T07:40:08;22.96;39.93
74792;SHT30;63319;46.046;17.802;2023-02-23T07:43:11;23.25;38.52
74792;SHT30;63319;46.046;17.802;2023-02-23T07:46:17;23.32;39.11
74792;SHT30;63319;46.046;17.802;2023-02-23T07:49:20;23.37;39.82
74792;SHT30;63319;46.046;17.802;2023-02-23T07:52:23;23.42;39.45
74792;SHT30;63319;46.046;17.802;2023-02-23T07:55:26;23.55;39.46
74792;SHT30;63319;46.046;17.802;2023-02-23T07:58:29;23.77;39.52
74792;SHT30;63319;46.046;17.802;2023-02-23T08:01:33;23.75;40.45
74792;SHT30;63319;46.046;17.802;2023-02-23T08:04:36;23.79;40.43
74792;SHT30;63319;46.046;17.802;2023-02-23T08:07:42;24.00;40.15
74792;SHT30;63319;46.046;17.802;2023-02-23T08:10:45;24.12;39.64
74792;SHT30;63319;46.046;17.802;2023-02-23T08:13:51;24.33;39.37
74792;SHT30;63319;46.046;17.802;2023-02-23T08:16:55;24.34;39.39
74792;SHT30;63319;46.046;17.802;2023-02-23T08:19:58;24.40;39.33
74792;SHT30;63319;46.046;17.802;2023-02-23T08:23:02;24.67;38.82
74792;SHT30;63319;46.046;17.802;2023-02-23T08:26:04;25.02;38.13
74792;SHT30;63319;46.046;17.802;2023-02-23T08:29:08;25.20;37.76
74792;SHT30;63319;46.046;17.802;2023-02-23T08:32:11;25.33;37.52
74792;SHT30;63319;46.046;17.802;2023-02-23T08:35:14;25.53;37.26
74792;SHT30;63319;46.046;17.802;2023-02-23T08:38:17;25.58;37.10
74792;SHT30;63319;46.046;17.802;2023-02-23T08:41:21;25.48;37.16
74792;SHT30;63319;46.046;17.802;2023-02-23T08:44:24;25.48;37.15
74792;SHT30;63319;46.046;17.802;2023-02-23T08:47:30;25.34;36.73
74792;SHT30;63319;46.046;17.802;2023-02-23T08:50:41;25.24;37.05
74792;SHT30;63319;46.046;17.802;2023-02-23T08:53:51;25.39;36.09
74792;SHT30;63319;46.046;17.802;2023-02-23T08:56:55;25.51;35.64
74792;SHT30;63319;46.046;17.802;2023-02-23T08:59:59;25.70;34.91
74792;SHT30;63319;46.046;17.802;2023-02-23T09:03:04;25.46;35.43
74792;SHT30;63319;46.046;17.802;2023-02-23T09:06:12;25.41;34.76
74792;SHT30;63319;46.046;17.802;2023-02-23T09:09:16;25.41;34.72
74792;SHT30;63319;46.046;17.802;2023-02-23T09:12:19;25.41;34.90
74792;SHT30;63319;46.046;17.802;2023-02-23T09:15:21;25.40;35.00
74792;SHT30;63319;46.046;17.802;2023-02-23T09:18:30;25.39;35.02
74792;SHT30;63319;46.046;17.802;2023-02-23T09:21:34;25.41;35.40
74792;SHT30;63319;46.046;17.802;2023-02-23T09:24:37;25.53;35.31
74792;SHT30;63319;46.046;17.802;2023-02-23T09:27:40;25.64;34.65
74792;SHT30;63319;46.046;17.802;2023-02-23T09:30:44;25.75;35.04
74792;SHT30;63319;46.046;17.802;2023-02-23T09:33:48;25.89;34.72
74792;SHT30;63319;46.046;17.802;2023-02-23T09:36:51;25.89;34.44
74792;SHT30;63319;46.046;17.802;2023-02-23T09:39:57;26.16;34.06
74792;SHT30;63319;46.046;17.802;2023-02-23T09:46:56;26.18;33.14
74792;SHT30;63319;46.046;17.802;2023-02-23T09:50:03;26.24;32.80
74792;SHT30;63319;46.046;17.802;2023-02-23T09:56:33;26.31;32.90
74792;SHT30;63319;46.046;17.802;2023-02-23T09:59:38;26.29;32.51
74792;SHT30;63319;46.046;17.802;2023-02-23T10:06:05;26.46;32.83
74792;SHT30;63319;46.046;17.802;2023-02-23T10:09:19;26.57;33.05
74792;SHT30;63319;46.046;17.802;2023-02-23T10:16:09;26.50;32.78
74792;SHT30;63319;46.046;17.802;2023-02-23T10:22:51;26.43;32.66
74792;SHT30;63319;46.046;17.802;2023-02-23T10:25:56;26.52;33.10
74792;SHT30;63319;46.046;17.802;2023-02-23T10:29:02;26.69;33.08
74792;SHT30;63319;46.046;17.802;2023-02-23T10:32:42;26.80;32.48
74792;SHT30;63319;46.046;17.802;2023-02-23T10:35:50;26.83;32.38
74792;SHT30;63319;46.046;17.802;2023-02-23T10:39:11;26.88;32.22
74792;SHT30;63319;46.046;17.802;2023-02-23T10:42:19;26.80;32.31
74792;SHT30;63319;46.046;17.802;2023-02-23T10:45:26;26.80;32.19
74792;SHT30;63319;46.046;17.802;2023-02-23T10:48:48;26.84;32.13
74792;SHT30;63319;46.046;17.802;2023-02-23T10:51:52;26.74;32.14
74792;SHT30;63319;46.046;17.802;2023-02-23T10:55:04;26.79;32.20
74792;SHT30;63319;46.046;17.802;2023-02-23T10:58:16;26.88;31.96
74792;SHT30;63319;46.046;17.802;2023-02-23T11:01:39;26.87;31.88
74792;SHT30;63319;46.046;17.802;2023-02-23T11:05:04;26.84;32.09
74792;SHT30;63319;46.046;17.802;2023-02-23T11:11:27;26.95;31.79
74792;SHT30;63319;46.046;17.802;2023-02-23T11:14:32;26.95;31.74
74792;SHT30;63319;46.046;17.802;2023-02-23T11:17:36;27.02;31.89
74792;SHT30;63319;46.046;17.802;2023-02-23T11:20:41;27.00;31.82
74792;SHT30;63319;46.046;17.802;2023-02-23T11:23:44;26.93;31.63
74792;SHT30;63319;46.046;17.802;2023-02-23T11:26:49;26.79;31.63
74792;SHT30;63319;46.046;17.802;2023-02-23T11:29:57;26.70;31.97
74792;SHT30;63319;46.046;17.802;2023-02-23T11:33:06;26.57;31.77
74792;SHT30;63319;46.046;17.802;2023-02-23T11:39:19;26.28;30.54
74792;SHT30;63319;46.046;17.802;2023-02-23T11:42:28;26.24;30.83
74792;SHT30;63319;46.046;17.802;2023-02-23T11:45:48;26.73;30.27
74792;SHT30;63319;46.046;17.802;2023-02-23T11:48:57;26.80;30.02
74792;SHT30;63319;46.046;17.802;2023-02-23T11:52:02;26.57;30.56
74792;SHT30;63319;46.046;17.802;2023-02-23T11:55:15;26.43;30.67
74792;SHT30;63319;46.046;17.802;2023-02-23T11:58:42;26.56;30.76
74792;SHT30;63319;46.046;17.802;2023-02-23T12:01:51;26.87;30.33
74792;SHT30;63319;46.046;17.802;2023-02-23T12:05:16;27.10;30.07
74792;SHT30;63319;46.046;17.802;2023-02-23T12:11:40;26.72;30.70
74792;SHT30;63319;46.046;17.802;2023-02-23T12:15:26;26.79;31.03
74792;SHT30;63319;46.046;17.802;2023-02-23T12:22:05;26.40;31.65
74792;SHT30;63319;46.046;17.802;2023-02-23T12:25:24;26.37;31.89
74792;SHT30;63319;46.046;17.802;2023-02-23T12:28:48;26.06;31.78
74792;SHT30;63319;46.046;17.802;2023-02-23T12:31:58;25.92;31.64
74792;SHT30;63319;46.046;17.802;2023-02-23T12:38:56;25.80;35.80
74792;SHT30;63319;46.046;17.802;2023-02-23T12:42:23;25.61;32.67
74792;SHT30;63319;46.046;17.802;2023-02-23T12:45:39;25.56;32.87
74792;SHT30;63319;46.046;17.802;2023-02-23T12:49:06;25.60;34.31
74792;SHT30;63319;46.046;17.802;2023-02-23T12:52:21;25.54;35.60
74792;SHT30;63319;46.046;17.802;2023-02-23T12:55:35;25.57;36.07
74792;SHT30;63319;46.046;17.802;2023-02-23T13:02:48;25.51;35.81
74792;SHT30;63319;46.046;17.802;2023-02-23T13:06:11;25.58;36.04
74792;SHT30;63319;46.046;17.802;2023-02-23T13:16:17;25.47;37.06
74792;SHT30;63319;46.046;17.802;2023-02-23T13:19:40;25.53;36.26
74792;SHT30;63319;46.046;17.802;2023-02-23T13:26:45;25.53;35.49
74792;SHT30;63319;46.046;17.802;2023-02-23T13:29:51;25.51;36.10
74792;SHT30;63319;46.046;17.802;2023-02-23T13:32:58;25.41;35.59
74792;SHT30;63319;46.046;17.802;2023-02-23T13:36:04;25.40;35.58
74792;SHT30;63319;46.046;17.802;2023-02-23T13:42:41;25.33;36.46
74792;SHT30;63319;46.046;17.802;2023-02-23T13:46:05;25.24;36.30
74792;SHT30;63319;46.046;17.802;2023-02-23T13:49:47;25.22;36.52
74792;SHT30;63319;46.046;17.802;2023-02-23T13:52:53;25.16;36.37
74792;SHT30;63319;46.046;17.802;2023-02-23T13:56:03;25.12;36.79
74792;SHT30;63319;46.046;17.802;2023-02-23T13:59:16;25.09;36.26
74792;SHT30;63319;46.046;17.802;2023-02-23T14:02:38;25.02;36.45
74792;SHT30;63319;46.046;17.802;2023-02-23T14:05:43;24.98;36.50
74792;SHT30;63319;46.046;17.802;2023-02-23T14:08:52;24.91;36.70
74792;SHT30;63319;46.046;17.802;2023-02-23T14:12:22;24.83;36.79
74792;SHT30;63319;46.046;17.802;2023-02-23T14:19:06;24.73;37.19
74792;SHT30;63319;46.046;17.802;2023-02-23T14:22:17;24.71;37.17
74792;SHT30;63319;46.046;17.802;2023-02-23T14:28:38;24.61;37.45
74792;SHT30;63319;46.046;17.802;2023-02-23T14:31:54;24.58;37.40
74792;SHT30;63319;46.046;17.802;2023-02-23T14:35:00;24.52;37.59
74792;SHT30;63319;46.046;17.802;2023-02-23T14:41:09;24.47;37.67
74792;SHT30;63319;46.046;17.802;2023-02-23T14:47:40;24.38;37.76
74792;SHT30;63319;46.046;17.802;2023-02-23T14:50:50;24.35;37.89
74792;SHT30;63319;46.046;17.802;2023-02-23T14:54:09;24.33;37.81
74792;SHT30;63319;46.046;17.802;2023-02-23T14:57:21;24.25;37.79
74792;SHT30;63319;46.046;17.802;2023-02-23T15:00:27;24.23;38.06
74792;SHT30;63319;46.046;17.802;2023-02-23T15:03:34;24.17;38.06
74792;SHT30;63319;46.046;17.802;2023-02-23T15:06:38;24.13;37.97
74792;SHT30;63319;46.046;17.802;2023-02-23T15:09:45;24.14;38.04
74792;SHT30;63319;46.046;17.802;2023-02-23T15:12:48;24.09;38.06
74792;SHT30;63319;46.046;17.802;2023-02-23T15:15:53;24.07;38.25
74792;SHT30;63319;46.046;17.802;2023-02-23T15:19:28;24.03;38.33
74792;SHT30;63319;46.046;17.802;2023-02-23T15:22:35;24.00;38.27
74792;SHT30;63319;46.046;17.802;2023-02-23T15:25:39;23.96;38.16
74792;SHT30;63319;46.046;17.802;2023-02-23T15:28:42;23.94;38.40
74792;SHT30;63319;46.046;17.802;2023-02-23T15:31:53;23.93;38.48
74792;SHT30;63319;46.046;17.802;2023-02-23T15:34:57;23.90;38.35
74792;SHT30;63319;46.046;17.802;2023-02-23T15:38:07;23.87;38.53
74792;SHT30;63319;46.046;17.802;2023-02-23T15:41:33;23.85;38.53
74792;SHT30;63319;46.046;17.802;2023-02-23T15:44:38;23.82;38.46
74792;SHT30;63319;46.046;17.802;2023-02-23T15:47:47;23.80;38.58
74792;SHT30;63319;46.046;17.802;2023-02-23T15:50:55;23.76;38.72
74792;SHT30;63319;46.046;17.802;2023-02-23T15:54:00;23.75;38.76
74792;SHT30;63319;46.046;17.802;2023-02-23T15:57:15;23.73;38.75
74792;SHT30;63319;46.046;17.802;2023-02-23T16:00:26;23.70;38.65
74792;SHT30;63319;46.046;17.802;2023-02-23T16:03:37;23.69;38.89
74792;SHT30;63319;46.046;17.802;2023-02-23T16:10:23;23.66;38.84
74792;SHT30;63319;46.046;17.802;2023-02-23T16:13:27;23.65;38.94
74792;SHT30;63319;46.046;17.802;2023-02-23T16:16:33;23.62;38.91
74792;SHT30;63319;46.046;17.802;2023-02-23T16:19:36;23.61;39.02
74792;SHT30;63319;46.046;17.802;2023-02-23T16:22:44;23.61;39.05
74792;SHT30;63319;46.046;17.802;2023-02-23T16:25:51;23.55;39.02
74792;SHT30;63319;46.046;17.802;2023-02-23T16:28:58;23.54;38.94
74792;SHT30;63319;46.046;17.802;2023-02-23T16:32:16;23.52;39.10
74792;SHT30;63319;46.046;17.802;2023-02-23T16:35:21;23.51;39.11
74792;SHT30;63319;46.046;17.802;2023-02-23T16:38:34;23.49;39.10
74792;SHT30;63319;46.046;17.802;2023-02-23T16:41:44;23.48;39.24
74792;SHT30;63319;46.046;17.802;2023-02-23T16:44:51;23.42;39.23
74792;SHT30;63319;46.046;17.802;2023-02-23T16:47:57;23.48;39.26
74792;SHT30;63319;46.046;17.802;2023-02-23T16:51:14;23.46;39.18
74792;SHT30;63319;46.046;17.802;2023-02-23T16:54:17;23.44;39.28
74792;SHT30;63319;46.046;17.802;2023-02-23T16:57:25;23.44;39.31
74792;SHT30;63319;46.046;17.802;2023-02-23T17:00:32;23.41;39.15
74792;SHT30;63319;46.046;17.802;2023-02-23T17:03:35;23.39;39.29
74792;SHT30;63319;46.046;17.802;2023-02-23T17:06:48;23.35;39.30
74792;SHT30;63319;46.046;17.802;2023-02-23T17:09:57;23.35;39.40
74792;SHT30;63319;46.046;17.802;2023-02-23T17:13:06;23.35;39.30
74792;SHT30;63319;46.046;17.802;2023-02-23T17:16:11;23.35;39.40
74792;SHT30;63319;46.046;17.802;2023-02-23T17:19:16;23.32;39.44
74792;SHT30;63319;46.046;17.802;2023-02-23T17:22:22;23.32;39.32
74792;SHT30;63319;46.046;17.802;2023-02-23T17:25:25;23.29;39.48
74792;SHT30;63319;46.046;17.802;2023-02-23T17:28:32;23.29;39.52
74792;SHT30;63319;46.046;17.802;2023-02-23T17:31:36;23.28;39.54
74792;SHT30;63319;46.046;17.802;2023-02-23T17:34:41;23.28;39.49
74792;SHT30;63319;46.046;17.802;2023-02-23T17:37:45;23.25;39.55
74792;SHT30;63319;46.046;17.802;2023-02-23T17:40:49;23.24;39.56
74792;SHT30;63319;46.046;17.802;2023-02-23T17:43:55;23.25;39.58
74792;SHT30;63319;46.046;17.802;2023-02-23T17:47:01;23.24;39.69
74792;SHT30;63319;46.046;17.802;2023-02-23T17:50:06;23.24;39.60
74792;SHT30;63319;46.046;17.802;2023-02-23T17:53:10;23.22;39.62
74792;SHT30;63319;46.046;17.802;2023-02-23T17:56:15;23.21;39.53
74792;SHT30;63319;46.046;17.802;2023-02-23T17:59:20;23.21;39.51
74792;SHT30;63319;46.046;17.802;2023-02-23T18:02:25;23.21;39.57
74792;SHT30;63319;46.046;17.802;2023-02-23T18:05:30;23.19;39.60
74792;SHT30;63319;46.046;17.802;2023-02-23T18:08:35;23.19;39.67
74792;SHT30;63319;46.046;17.802;2023-02-23T18:11:39;23.17;39.78
74792;SHT30;63319;46.046;17.802;2023-02-23T18:14:42;23.15;39.61
74792;SHT30;63319;46.046;17.802;2023-02-23T18:17:53;23.17;39.71
74792;SHT30;63319;46.046;17.802;2023-02-23T18:21:01;23.15;39.65
74792;SHT30;63319;46.046;17.802;2023-02-23T18:24:07;23.15;39.75
74792;SHT30;63319;46.046;17.802;2023-02-23T18:27:12;23.14;39.69
74792;SHT30;63319;46.046;17.802;2023-02-23T18:30:17;23.11;39.30
74792;SHT30;63319;46.046;17.802;2023-02-23T18:33:20;23.11;39.70
74792;SHT30;63319;46.046;17.802;2023-02-23T18:36:27;23.12;39.59
74792;SHT30;63319;46.046;17.802;2023-02-23T18:39:32;23.08;39.63
74792;SHT30;63319;46.046;17.802;2023-02-23T18:42:38;23.10;39.64
74792;SHT30;63319;46.046;17.802;2023-02-23T18:45:43;23.08;39.62
74792;SHT30;63319;46.046;17.802;2023-02-23T18:48:49;23.07;39.63
74792;SHT30;63319;46.046;17.802;2023-02-23T18:51:54;23.08;39.71
74792;SHT30;63319;46.046;17.802;2023-02-23T18:54:59;23.08;39.76
74792;SHT30;63319;46.046;17.802;2023-02-23T18:58:03;23.07;39.76
74792;SHT30;63319;46.046;17.802;2023-02-23T19:01:16;23.07;39.76
74792;SHT30;63319;46.046;17.802;2023-02-23T19:04:22;23.04;39.75
74792;SHT30;63319;46.046;17.802;2023-02-23T19:07:27;23.04;39.73
74792;SHT30;63319;46.046;17.802;2023-02-23T19:10:34;23.03;39.60
74792;SHT30;63319;46.046;17.802;2023-02-23T19:13:39;23.01;39.58
74792;SHT30;63319;46.046;17.802;2023-02-23T19:16:44;23.00;39.58
74792;SHT30;63319;46.046;17.802;2023-02-23T19:19:53;23.00;39.85
74792;SHT30;63319;46.046;17.802;2023-02-23T19:23:01;22.98;39.82
74792;SHT30;63319;46.046;17.802;2023-02-23T19:26:07;22.98;39.75
74792;SHT30;63319;46.046;17.802;2023-02-23T19:29:13;22.98;39.84
74792;SHT30;63319;46.046;17.802;2023-02-23T19:32:18;22.97;39.84
74792;SHT30;63319;46.046;17.802;2023-02-23T19:35:22;22.97;39.88
74792;SHT30;63319;46.046;17.802;2023-02-23T19:38:29;22.97;39.88
74792;SHT30;63319;46.046;17.802;2023-02-23T19:41:33;22.96;39.75
74792;SHT30;63319;46.046;17.802;2023-02-23T19:44:38;22.96;39.78
74792;SHT30;63319;46.046;17.802;2023-02-23T19:47:44;22.94;39.82
74792;SHT30;63319;46.046;17.802;2023-02-23T19:50:49;22.93;39.68
74792;SHT30;63319;46.046;17.802;2023-02-23T19:53:56;22.93;39.82
74792;SHT30;63319;46.046;17.802;2023-02-23T19:57:04;22.91;39.74
74792;SHT30;63319;46.046;17.802;2023-02-23T20:00:11;22.90;39.74
74792;SHT30;63319;46.046;17.802;2023-02-23T20:03:18;22.90;39.74
74792;SHT30;63319;46.046;17.802;2023-02-23T20:06:37;22.90;39.71
74792;SHT30;63319;46.046;17.802;2023-02-23T20:09:43;22.90;39.83
74792;SHT30;63319;46.046;17.802;2023-02-23T20:12:47;22.90;39.86
74792;SHT30;63319;46.046;17.802;2023-02-23T20:16:01;22.90;39.78
74792;SHT30;63319;46.046;17.802;2023-02-23T20:19:06;22.87;39.61
74792;SHT30;63319;46.046;17.802;2023-02-23T20:22:11;22.87;39.62
74792;SHT30;63319;46.046;17.802;2023-02-23T20:25:17;22.86;39.90
74792;SHT30;63319;46.046;17.802;2023-02-23T20:31:51;22.86;39.83
74792;SHT30;63319;46.046;17.802;2023-02-23T20:35:00;22.84;39.89
74792;SHT30;63319;46.046;17.802;2023-02-23T20:38:05;22.83;39.92
74792;SHT30;63319;46.046;17.802;2023-02-23T20:41:10;22.83;39.89
74792;SHT30;63319;46.046;17.802;2023-02-23T20:44:17;22.83;39.93
74792;SHT30;63319;46.046;17.802;2023-02-23T20:47:21;22.83;39.93
74792;SHT30;63319;46.046;17.802;2023-02-23T20:50:29;22.79;39.97
74792;SHT30;63319;46.046;17.802;2023-02-23T20:53:37;22.81;39.92
74792;SHT30;63319;46.046;17.802;2023-02-23T20:56:43;22.79;39.69
74792;SHT30;63319;46.046;17.802;2023-02-23T20:59:48;22.80;39.80
74792;SHT30;63319;46.046;17.802;2023-02-23T21:02:52;22.79;39.80
74792;SHT30;63319;46.046;17.802;2023-02-23T21:05:58;22.76;39.81
74792;SHT30;63319;46.046;17.802;2023-02-23T21:09:03;22.73;39.68
74792;SHT30;63319;46.046;17.802;2023-02-23T21:12:08;22.74;39.85
74792;SHT30;63319;46.046;17.802;2023-02-23T21:15:13;22.74;39.78
74792;SHT30;63319;46.046;17.802;2023-02-23T21:18:17;22.76;39.95